sensor_id;sensor_type;location;lat;lon;timestamp;P1;durP1;ratioP1;P2;durP2;ratioP2
14984;SDS011;7588;62.368;25.902;2023-04-24T00:00:25;3.50;;;3.20;;
14984;SDS011;7588;62.368;25.902;2023-04-24T00:02:50;4.80;;;3.53;;
14984;SDS011;7588;62.368;25.902;2023-04-24T00:05:16;4.00;;;3.50;;
14984;SDS011;7588;62.368;25.902;2023-04-24T00:07:43;4.77;;;3.33;;
14984;SDS011;7588;62.368;25.902;2023-04-24T00:10:10;3.47;;;3.17;;
14984;SDS011;7588;62.368;25.902;2023-04-24T00:12:36;3.90;;;3.50;;
14984;SDS011;7588;62.368;25.902;2023-04-24T00:15:02;4.20;;;3.80;;
14984;SDS011;7588;62.368;25.902;2023-04-24T00:17:28;4.50;;;3.60;;
14984;SDS011;7588;62.368;25.902;2023-04-24T00:19:54;3.50;;;3.20;;
14984;SDS011;7588;62.368;25.902;2023-04-24T00:22:28;3.70;;;3.27;;
14984;SDS011;7588;62.368;25.902;2023-04-24T00:24:54;4.90;;;3.97;;
14984;SDS011;7588;62.368;25.902;2023-04-24T00:27:20;3.80;;;3.20;;
14984;SDS011;7588;62.368;25.902;2023-04-24T00:29:46;3.73;;;3.13;;
14984;SDS011;7588;62.368;25.902;2023-04-24T00:32:12;3.60;;;3.30;;
14984;SDS011;7588;62.368;25.902;2023-04-24T00:34:38;3.43;;;3.13;;
14984;SDS011;7588;62.368;25.902;2023-04-24T00:37:03;3.90;;;3.50;;
14984;SDS011;7588;62.368;25.902;2023-04-24T00:39:30;4.50;;;3.70;;
14984;SDS011;7588;62.368;25.902;2023-04-24T00:41:56;4.53;;;3.67;;
14984;SDS011;7588;62.368;25.902;2023-04-24T00:44:22;4.10;;;3.67;;
14984;SDS011;7588;62.368;25.902;2023-04-24T00:46:48;4.87;;;3.80;;
14984;SDS011;7588;62.368;25.902;2023-04-24T00:49:18;4.47;;;3.70;;
14984;SDS011;7588;62.368;25.902;2023-04-24T00:51:44;4.87;;;3.30;;
14984;SDS011;7588;62.368;25.902;2023-04-24T00:54:10;4.23;;;3.40;;
14984;SDS011;7588;62.368;25.902;2023-04-24T00:56:36;4.63;;;3.73;;
14984;SDS011;7588;62.368;25.902;2023-04-24T00:59:03;3.90;;;3.40;;
14984;SDS011;7588;62.368;25.902;2023-04-24T01:01:29;5.93;;;4.00;;
14984;SDS011;7588;62.368;25.902;2023-04-24T01:03:55;4.20;;;3.40;;
14984;SDS011;7588;62.368;25.902;2023-04-24T01:06:23;4.37;;;3.60;;
14984;SDS011;7588;62.368;25.902;2023-04-24T01:08:52;4.40;;;3.13;;
14984;SDS011;7588;62.368;25.902;2023-04-24T01:11:18;3.70;;;3.33;;
14984;SDS011;7588;62.368;25.902;2023-04-24T01:13:45;4.67;;;3.30;;
14984;SDS011;7588;62.368;25.902;2023-04-24T01:16:12;3.47;;;3.17;;
14984;SDS011;7588;62.368;25.902;2023-04-24T01:18:38;4.43;;;3.30;;
14984;SDS011;7588;62.368;25.902;2023-04-24T01:21:04;5.43;;;3.37;;
14984;SDS011;7588;62.368;25.902;2023-04-24T01:23:30;3.70;;;3.30;;
14984;SDS011;7588;62.368;25.902;2023-04-24T01:25:56;3.00;;;2.70;;
14984;SDS011;7588;62.368;25.902;2023-04-24T01:28:22;4.43;;;3.40;;
14984;SDS011;7588;62.368;25.902;2023-04-24T01:30:48;4.17;;;3.77;;
14984;SDS011;7588;62.368;25.902;2023-04-24T01:33:14;4.73;;;3.30;;
14984;SDS011;7588;62.368;25.902;2023-04-24T01:35:40;4.80;;;3.27;;
14984;SDS011;7588;62.368;25.902;2023-04-24T01:38:06;4.07;;;3.23;;
14984;SDS011;7588;62.368;25.902;2023-04-24T01:40:32;3.50;;;3.20;;
14984;SDS011;7588;62.368;25.902;2023-04-24T01:42:58;4.23;;;3.23;;
14984;SDS011;7588;62.368;25.902;2023-04-24T01:45:24;4.70;;;3.33;;
14984;SDS011;7588;62.368;25.902;2023-04-24T01:47:50;4.60;;;3.67;;
14984;SDS011;7588;62.368;25.902;2023-04-24T01:50:16;5.10;;;3.23;;
14984;SDS011;7588;62.368;25.902;2023-04-24T01:52:42;4.13;;;3.53;;
14984;SDS011;7588;62.368;25.902;2023-04-24T01:55:08;4.00;;;3.60;;
14984;SDS011;7588;62.368;25.902;2023-04-24T01:57:34;4.27;;;3.80;;
14984;SDS011;7588;62.368;25.902;2023-04-24T02:00:01;4.93;;;3.07;;
14984;SDS011;7588;62.368;25.902;2023-04-24T02:02:29;5.27;;;4.00;;
14984;SDS011;7588;62.368;25.902;2023-04-24T02:04:55;6.13;;;4.03;;
14984;SDS011;7588;62.368;25.902;2023-04-24T02:07:21;4.27;;;3.87;;
14984;SDS011;7588;62.368;25.902;2023-04-24T02:09:48;4.90;;;3.80;;
14984;SDS011;7588;62.368;25.902;2023-04-24T02:12:17;3.93;;;3.53;;
14984;SDS011;7588;62.368;25.902;2023-04-24T02:14:43;5.00;;;4.10;;
14984;SDS011;7588;62.368;25.902;2023-04-24T02:17:09;4.63;;;3.90;;
14984;SDS011;7588;62.368;25.902;2023-04-24T02:19:37;4.63;;;4.10;;
14984;SDS011;7588;62.368;25.902;2023-04-24T02:22:02;4.23;;;3.80;;
14984;SDS011;7588;62.368;25.902;2023-04-24T02:24:28;4.87;;;4.00;;
14984;SDS011;7588;62.368;25.902;2023-04-24T02:26:54;4.77;;;4.20;;
14984;SDS011;7588;62.368;25.902;2023-04-24T02:29:19;4.57;;;4.17;;
14984;SDS011;7588;62.368;25.902;2023-04-24T02:31:45;5.67;;;4.20;;
14984;SDS011;7588;62.368;25.902;2023-04-24T02:34:11;4.73;;;4.23;;
14984;SDS011;7588;62.368;25.902;2023-04-24T02:36:36;5.47;;;4.90;;
14984;SDS011;7588;62.368;25.902;2023-04-24T02:39:02;5.53;;;4.30;;
14984;SDS011;7588;62.368;25.902;2023-04-24T02:41:28;5.53;;;4.57;;
14984;SDS011;7588;62.368;25.902;2023-04-24T02:43:57;7.43;;;4.33;;
14984;SDS011;7588;62.368;25.902;2023-04-24T02:46:23;4.87;;;4.37;;
14984;SDS011;7588;62.368;25.902;2023-04-24T02:48:49;5.63;;;4.50;;
14984;SDS011;7588;62.368;25.902;2023-04-24T02:51:14;4.93;;;3.90;;
14984;SDS011;7588;62.368;25.902;2023-04-24T02:53:40;5.63;;;4.63;;
14984;SDS011;7588;62.368;25.902;2023-04-24T02:56:06;5.20;;;4.13;;
14984;SDS011;7588;62.368;25.902;2023-04-24T02:58:31;5.80;;;4.73;;
14984;SDS011;7588;62.368;25.902;2023-04-24T03:00:57;6.07;;;4.00;;
14984;SDS011;7588;62.368;25.902;2023-04-24T03:03:23;4.83;;;4.33;;
14984;SDS011;7588;62.368;25.902;2023-04-24T03:05:49;5.07;;;4.53;;
14984;SDS011;7588;62.368;25.902;2023-04-24T03:08:15;4.80;;;3.97;;
14984;SDS011;7588;62.368;25.902;2023-04-24T03:10:41;6.13;;;4.30;;
14984;SDS011;7588;62.368;25.902;2023-04-24T03:13:07;5.33;;;4.47;;
14984;SDS011;7588;62.368;25.902;2023-04-24T03:15:32;5.47;;;4.90;;
14984;SDS011;7588;62.368;25.902;2023-04-24T03:17:58;5.73;;;4.80;;
14984;SDS011;7588;62.368;25.902;2023-04-24T03:20:25;6.63;;;4.70;;
14984;SDS011;7588;62.368;25.902;2023-04-24T03:22:51;5.43;;;4.13;;
14984;SDS011;7588;62.368;25.902;2023-04-24T03:25:17;6.20;;;4.57;;
14984;SDS011;7588;62.368;25.902;2023-04-24T03:27:42;5.50;;;4.57;;
14984;SDS011;7588;62.368;25.902;2023-04-24T03:30:08;7.37;;;4.87;;
14984;SDS011;7588;62.368;25.902;2023-04-24T03:32:35;6.87;;;4.63;;
14984;SDS011;7588;62.368;25.902;2023-04-24T03:35:01;6.50;;;4.70;;
14984;SDS011;7588;62.368;25.902;2023-04-24T03:37:26;5.57;;;4.30;;
14984;SDS011;7588;62.368;25.902;2023-04-24T03:39:52;5.93;;;4.90;;
14984;SDS011;7588;62.368;25.902;2023-04-24T03:42:18;5.80;;;4.80;;
14984;SDS011;7588;62.368;25.902;2023-04-24T03:44:44;8.47;;;4.67;;
14984;SDS011;7588;62.368;25.902;2023-04-24T03:47:09;8.50;;;5.37;;
14984;SDS011;7588;62.368;25.902;2023-04-24T03:49:35;6.57;;;5.10;;
14984;SDS011;7588;62.368;25.902;2023-04-24T03:52:01;5.67;;;4.63;;
14984;SDS011;7588;62.368;25.902;2023-04-24T03:54:27;6.07;;;5.10;;
14984;SDS011;7588;62.368;25.902;2023-04-24T03:56:52;6.23;;;5.10;;
14984;SDS011;7588;62.368;25.902;2023-04-24T03:59:18;6.20;;;5.10;;
14984;SDS011;7588;62.368;25.902;2023-04-24T04:01:44;8.43;;;5.20;;
14984;SDS011;7588;62.368;25.902;2023-04-24T04:04:10;8.03;;;5.47;;
14984;SDS011;7588;62.368;25.902;2023-04-24T04:06:36;6.70;;;4.70;;
14984;SDS011;7588;62.368;25.902;2023-04-24T04:09:02;6.10;;;4.70;;
14984;SDS011;7588;62.368;25.902;2023-04-24T04:11:28;7.20;;;4.87;;
14984;SDS011;7588;62.368;25.902;2023-04-24T04:13:54;6.63;;;5.20;;
14984;SDS011;7588;62.368;25.902;2023-04-24T04:16:19;8.93;;;5.57;;
14984;SDS011;7588;62.368;25.902;2023-04-24T04:18:45;6.57;;;4.70;;
14984;SDS011;7588;62.368;25.902;2023-04-24T04:21:11;6.17;;;4.83;;
14984;SDS011;7588;62.368;25.902;2023-04-24T04:23:37;5.17;;;4.57;;
14984;SDS011;7588;62.368;25.902;2023-04-24T04:26:03;6.23;;;4.87;;
14984;SDS011;7588;62.368;25.902;2023-04-24T04:28:29;6.03;;;4.80;;
14984;SDS011;7588;62.368;25.902;2023-04-24T04:30:57;6.33;;;4.80;;
14984;SDS011;7588;62.368;25.902;2023-04-24T04:33:24;6.37;;;5.27;;
14984;SDS011;7588;62.368;25.902;2023-04-24T04:35:50;6.30;;;4.67;;
14984;SDS011;7588;62.368;25.902;2023-04-24T04:38:21;6.47;;;5.03;;
14984;SDS011;7588;62.368;25.902;2023-04-24T04:40:48;5.70;;;5.10;;
14984;SDS011;7588;62.368;25.902;2023-04-24T04:43:13;7.13;;;4.67;;
14984;SDS011;7588;62.368;25.902;2023-04-24T04:45:40;5.70;;;5.10;;
14984;SDS011;7588;62.368;25.902;2023-04-24T04:48:07;7.83;;;5.10;;
14984;SDS011;7588;62.368;25.902;2023-04-24T04:50:37;5.97;;;4.73;;
14984;SDS011;7588;62.368;25.902;2023-04-24T04:53:03;7.97;;;5.00;;
14984;SDS011;7588;62.368;25.902;2023-04-24T04:55:29;5.93;;;4.63;;
14984;SDS011;7588;62.368;25.902;2023-04-24T04:57:55;5.13;;;4.47;;
14984;SDS011;7588;62.368;25.902;2023-04-24T05:00:21;6.93;;;5.30;;
14984;SDS011;7588;62.368;25.902;2023-04-24T05:02:49;9.00;;;5.30;;
14984;SDS011;7588;62.368;25.902;2023-04-24T05:05:14;7.33;;;4.93;;
14984;SDS011;7588;62.368;25.902;2023-04-24T05:07:42;7.10;;;5.43;;
14984;SDS011;7588;62.368;25.902;2023-04-24T05:10:07;6.80;;;4.97;;
14984;SDS011;7588;62.368;25.902;2023-04-24T05:12:33;7.97;;;5.93;;
14984;SDS011;7588;62.368;25.902;2023-04-24T05:14:59;7.13;;;5.50;;
14984;SDS011;7588;62.368;25.902;2023-04-24T05:17:25;6.70;;;5.60;;
14984;SDS011;7588;62.368;25.902;2023-04-24T05:19:51;7.47;;;5.40;;
14984;SDS011;7588;62.368;25.902;2023-04-24T05:22:16;8.27;;;5.90;;
14984;SDS011;7588;62.368;25.902;2023-04-24T05:24:43;6.83;;;5.67;;
14984;SDS011;7588;62.368;25.902;2023-04-24T05:27:09;11.00;;;6.03;;
14984;SDS011;7588;62.368;25.902;2023-04-24T05:29:35;6.70;;;5.90;;
14984;SDS011;7588;62.368;25.902;2023-04-24T05:32:01;7.37;;;5.40;;
14984;SDS011;7588;62.368;25.902;2023-04-24T05:34:26;6.47;;;4.90;;
14984;SDS011;7588;62.368;25.902;2023-04-24T05:36:52;5.37;;;4.70;;
14984;SDS011;7588;62.368;25.902;2023-04-24T05:39:18;5.17;;;4.67;;
14984;SDS011;7588;62.368;25.902;2023-04-24T05:41:44;5.70;;;5.20;;
14984;SDS011;7588;62.368;25.902;2023-04-24T05:44:10;6.17;;;4.70;;
14984;SDS011;7588;62.368;25.902;2023-04-24T05:46:36;6.60;;;5.47;;
14984;SDS011;7588;62.368;25.902;2023-04-24T05:49:02;7.40;;;4.60;;
14984;SDS011;7588;62.368;25.902;2023-04-24T05:51:27;6.00;;;4.70;;
14984;SDS011;7588;62.368;25.902;2023-04-24T05:53:53;5.43;;;4.80;;
14984;SDS011;7588;62.368;25.902;2023-04-24T05:56:19;6.23;;;4.90;;
14984;SDS011;7588;62.368;25.902;2023-04-24T05:58:45;4.97;;;4.50;;
14984;SDS011;7588;62.368;25.902;2023-04-24T06:01:11;8.07;;;5.00;;
14984;SDS011;7588;62.368;25.902;2023-04-24T06:03:38;5.90;;;5.30;;
14984;SDS011;7588;62.368;25.902;2023-04-24T06:06:05;7.67;;;6.00;;
14984;SDS011;7588;62.368;25.902;2023-04-24T06:08:31;7.97;;;7.17;;
14984;SDS011;7588;62.368;25.902;2023-04-24T06:10:57;9.63;;;6.80;;
14984;SDS011;7588;62.368;25.902;2023-04-24T06:13:23;9.13;;;7.20;;
14984;SDS011;7588;62.368;25.902;2023-04-24T06:15:49;7.57;;;6.80;;
14984;SDS011;7588;62.368;25.902;2023-04-24T06:18:18;7.80;;;6.70;;
14984;SDS011;7588;62.368;25.902;2023-04-24T06:20:44;7.53;;;6.77;;
14984;SDS011;7588;62.368;25.902;2023-04-24T06:23:10;7.03;;;6.40;;
14984;SDS011;7588;62.368;25.902;2023-04-24T06:25:36;8.77;;;6.40;;
14984;SDS011;7588;62.368;25.902;2023-04-24T06:28:03;6.40;;;5.80;;
14984;SDS011;7588;62.368;25.902;2023-04-24T06:30:28;5.33;;;4.83;;
14984;SDS011;7588;62.368;25.902;2023-04-24T06:32:54;6.30;;;5.60;;
14984;SDS011;7588;62.368;25.902;2023-04-24T06:35:20;7.43;;;5.57;;
14984;SDS011;7588;62.368;25.902;2023-04-24T06:37:46;5.90;;;5.40;;
14984;SDS011;7588;62.368;25.902;2023-04-24T06:40:11;5.40;;;4.90;;
14984;SDS011;7588;62.368;25.902;2023-04-24T06:42:37;4.60;;;4.20;;
14984;SDS011;7588;62.368;25.902;2023-04-24T06:45:03;5.27;;;4.77;;
14984;SDS011;7588;62.368;25.902;2023-04-24T06:47:30;4.07;;;3.67;;
14984;SDS011;7588;62.368;25.902;2023-04-24T06:49:56;5.07;;;4.57;;
14984;SDS011;7588;62.368;25.902;2023-04-24T06:52:22;5.40;;;4.73;;
14984;SDS011;7588;62.368;25.902;2023-04-24T06:54:47;4.70;;;3.87;;
14984;SDS011;7588;62.368;25.902;2023-04-24T06:57:13;4.07;;;3.67;;
14984;SDS011;7588;62.368;25.902;2023-04-24T06:59:41;4.23;;;3.83;;
14984;SDS011;7588;62.368;25.902;2023-04-24T07:02:06;4.43;;;4.03;;
14984;SDS011;7588;62.368;25.902;2023-04-24T07:04:32;4.47;;;4.03;;
14984;SDS011;7588;62.368;25.902;2023-04-24T07:06:58;4.40;;;3.40;;
14984;SDS011;7588;62.368;25.902;2023-04-24T07:09:24;4.03;;;3.73;;
14984;SDS011;7588;62.368;25.902;2023-04-24T07:11:53;4.67;;;3.90;;
14984;SDS011;7588;62.368;25.902;2023-04-24T07:14:19;4.53;;;4.13;;
14984;SDS011;7588;62.368;25.902;2023-04-24T07:16:45;3.37;;;3.07;;
14984;SDS011;7588;62.368;25.902;2023-04-24T07:19:12;4.17;;;3.87;;
14984;SDS011;7588;62.368;25.902;2023-04-24T07:21:38;3.77;;;3.47;;
14984;SDS011;7588;62.368;25.902;2023-04-24T07:24:04;4.40;;;3.33;;
14984;SDS011;7588;62.368;25.902;2023-04-24T07:26:34;4.27;;;3.30;;
14984;SDS011;7588;62.368;25.902;2023-04-24T07:29:00;3.67;;;3.37;;
14984;SDS011;7588;62.368;25.902;2023-04-24T07:31:25;4.53;;;4.03;;
14984;SDS011;7588;62.368;25.902;2023-04-24T07:33:51;4.40;;;4.00;;
14984;SDS011;7588;62.368;25.902;2023-04-24T07:36:17;4.40;;;3.53;;
14984;SDS011;7588;62.368;25.902;2023-04-24T07:38:46;3.30;;;3.00;;
14984;SDS011;7588;62.368;25.902;2023-04-24T07:41:13;4.23;;;3.83;;
14984;SDS011;7588;62.368;25.902;2023-04-24T07:43:39;3.90;;;3.60;;
14984;SDS011;7588;62.368;25.902;2023-04-24T07:46:05;3.83;;;3.53;;
14984;SDS011;7588;62.368;25.902;2023-04-24T07:48:31;4.07;;;3.77;;
14984;SDS011;7588;62.368;25.902;2023-04-24T07:50:57;4.27;;;3.40;;
14984;SDS011;7588;62.368;25.902;2023-04-24T07:53:23;4.27;;;3.87;;
14984;SDS011;7588;62.368;25.902;2023-04-24T07:55:48;4.40;;;4.00;;
14984;SDS011;7588;62.368;25.902;2023-04-24T07:58:14;4.10;;;3.80;;
14984;SDS011;7588;62.368;25.902;2023-04-24T08:00:40;4.57;;;3.93;;
14984;SDS011;7588;62.368;25.902;2023-04-24T08:03:06;4.37;;;4.03;;
14984;SDS011;7588;62.368;25.902;2023-04-24T08:05:31;4.70;;;4.23;;
14984;SDS011;7588;62.368;25.902;2023-04-24T08:07:57;5.07;;;4.57;;
14984;SDS011;7588;62.368;25.902;2023-04-24T08:10:24;5.30;;;4.47;;
14984;SDS011;7588;62.368;25.902;2023-04-24T08:12:50;5.07;;;4.67;;
14984;SDS011;7588;62.368;25.902;2023-04-24T08:15:16;4.70;;;4.30;;
14984;SDS011;7588;62.368;25.902;2023-04-24T08:17:42;8.03;;;4.97;;
14984;SDS011;7588;62.368;25.902;2023-04-24T08:20:08;5.50;;;5.00;;
14984;SDS011;7588;62.368;25.902;2023-04-24T08:22:38;5.77;;;5.00;;
14984;SDS011;7588;62.368;25.902;2023-04-24T08:25:05;5.00;;;4.60;;
14984;SDS011;7588;62.368;25.902;2023-04-24T08:27:32;4.63;;;4.17;;
14984;SDS011;7588;62.368;25.902;2023-04-24T08:29:58;5.20;;;4.80;;
14984;SDS011;7588;62.368;25.902;2023-04-24T08:32:24;5.23;;;4.67;;
14984;SDS011;7588;62.368;25.902;2023-04-24T08:34:52;5.30;;;4.80;;
14984;SDS011;7588;62.368;25.902;2023-04-24T08:37:18;5.30;;;4.77;;
14984;SDS011;7588;62.368;25.902;2023-04-24T08:39:44;4.93;;;4.47;;
14984;SDS011;7588;62.368;25.902;2023-04-24T08:42:09;4.40;;;4.10;;
14984;SDS011;7588;62.368;25.902;2023-04-24T08:44:37;10.10;;;4.23;;
14984;SDS011;7588;62.368;25.902;2023-04-24T08:47:04;4.77;;;4.20;;
14984;SDS011;7588;62.368;25.902;2023-04-24T08:49:31;9.00;;;4.70;;
14984;SDS011;7588;62.368;25.902;2023-04-24T08:51:58;4.23;;;3.87;;
14984;SDS011;7588;62.368;25.902;2023-04-24T08:54:25;7.77;;;3.97;;
14984;SDS011;7588;62.368;25.902;2023-04-24T08:56:51;4.20;;;3.80;;
14984;SDS011;7588;62.368;25.902;2023-04-24T08:59:19;4.40;;;3.53;;
14984;SDS011;7588;62.368;25.902;2023-04-24T09:01:47;3.87;;;3.13;;
14984;SDS011;7588;62.368;25.902;2023-04-24T09:04:15;3.77;;;3.47;;
14984;SDS011;7588;62.368;25.902;2023-04-24T09:06:44;3.50;;;3.20;;
14984;SDS011;7588;62.368;25.902;2023-04-24T09:09:10;3.20;;;3.00;;
14984;SDS011;7588;62.368;25.902;2023-04-24T09:11:36;3.47;;;3.20;;
14984;SDS011;7588;62.368;25.902;2023-04-24T09:14:02;2.90;;;2.70;;
14984;SDS011;7588;62.368;25.902;2023-04-24T09:16:29;6.40;;;2.80;;
14984;SDS011;7588;62.368;25.902;2023-04-24T09:18:58;6.00;;;3.03;;
14984;SDS011;7588;62.368;25.902;2023-04-24T09:21:23;4.93;;;2.80;;
14984;SDS011;7588;62.368;25.902;2023-04-24T09:24:03;10.77;;;3.10;;
14984;SDS011;7588;62.368;25.902;2023-04-24T09:26:31;4.00;;;2.93;;
14984;SDS011;7588;62.368;25.902;2023-04-24T09:29:02;3.33;;;3.03;;
14984;SDS011;7588;62.368;25.902;2023-04-24T09:31:29;3.00;;;2.80;;
14984;SDS011;7588;62.368;25.902;2023-04-24T09:36:31;2.70;;;2.50;;
14984;SDS011;7588;62.368;25.902;2023-04-24T09:39:01;3.00;;;2.70;;
14984;SDS011;7588;62.368;25.902;2023-04-24T09:41:27;2.50;;;2.30;;
14984;SDS011;7588;62.368;25.902;2023-04-24T09:43:56;3.23;;;2.23;;
14984;SDS011;7588;62.368;25.902;2023-04-24T09:46:29;5.47;;;2.47;;
14984;SDS011;7588;62.368;25.902;2023-04-24T09:49:07;3.10;;;2.30;;
14984;SDS011;7588;62.368;25.902;2023-04-24T09:51:47;2.93;;;2.40;;
14984;SDS011;7588;62.368;25.902;2023-04-24T09:54:16;2.80;;;2.60;;
14984;SDS011;7588;62.368;25.902;2023-04-24T09:56:46;10.77;;;3.13;;
14984;SDS011;7588;62.368;25.902;2023-04-24T09:59:19;9.77;;;2.60;;
14984;SDS011;7588;62.368;25.902;2023-04-24T10:01:45;2.30;;;2.10;;
14984;SDS011;7588;62.368;25.902;2023-04-24T10:06:43;2.90;;;2.20;;
14984;SDS011;7588;62.368;25.902;2023-04-24T10:09:09;2.50;;;2.30;;
14984;SDS011;7588;62.368;25.902;2023-04-24T10:11:37;2.57;;;2.37;;
14984;SDS011;7588;62.368;25.902;2023-04-24T10:14:06;3.00;;;2.47;;
14984;SDS011;7588;62.368;25.902;2023-04-24T10:16:33;5.20;;;2.50;;
14984;SDS011;7588;62.368;25.902;2023-04-24T10:19:00;14.87;;;4.13;;
14984;SDS011;7588;62.368;25.902;2023-04-24T10:21:25;18.63;;;4.87;;
14984;SDS011;7588;62.368;25.902;2023-04-24T10:23:52;2.70;;;2.40;;
14984;SDS011;7588;62.368;25.902;2023-04-24T10:26:18;10.87;;;4.17;;
14984;SDS011;7588;62.368;25.902;2023-04-24T10:28:45;8.07;;;3.03;;
14984;SDS011;7588;62.368;25.902;2023-04-24T10:31:12;3.23;;;2.93;;
14984;SDS011;7588;62.368;25.902;2023-04-24T10:33:42;9.10;;;3.07;;
14984;SDS011;7588;62.368;25.902;2023-04-24T10:36:10;3.40;;;2.40;;
14984;SDS011;7588;62.368;25.902;2023-04-24T10:38:39;11.57;;;3.40;;
14984;SDS011;7588;62.368;25.902;2023-04-24T10:41:10;4.43;;;2.87;;
14984;SDS011;7588;62.368;25.902;2023-04-24T10:43:48;6.13;;;3.10;;
14984;SDS011;7588;62.368;25.902;2023-04-24T10:46:34;3.10;;;2.80;;
14984;SDS011;7588;62.368;25.902;2023-04-24T10:49:04;6.23;;;3.13;;
14984;SDS011;7588;62.368;25.902;2023-04-24T10:51:49;4.47;;;3.40;;
14984;SDS011;7588;62.368;25.902;2023-04-24T10:59:43;4.20;;;3.80;;
14984;SDS011;7588;62.368;25.902;2023-04-24T11:02:09;5.13;;;4.33;;
14984;SDS011;7588;62.368;25.902;2023-04-24T11:04:35;4.43;;;3.60;;
14984;SDS011;7588;62.368;25.902;2023-04-24T11:07:02;4.30;;;3.97;;
14984;SDS011;7588;62.368;25.902;2023-04-24T11:09:29;3.77;;;3.47;;
14984;SDS011;7588;62.368;25.902;2023-04-24T11:12:05;3.97;;;3.50;;
14984;SDS011;7588;62.368;25.902;2023-04-24T11:17:34;4.77;;;3.40;;
14984;SDS011;7588;62.368;25.902;2023-04-24T11:20:09;4.13;;;3.60;;
14984;SDS011;7588;62.368;25.902;2023-04-24T11:22:38;4.00;;;3.60;;
14984;SDS011;7588;62.368;25.902;2023-04-24T11:25:07;3.50;;;3.20;;
14984;SDS011;7588;62.368;25.902;2023-04-24T11:27:43;3.93;;;3.50;;
14984;SDS011;7588;62.368;25.902;2023-04-24T11:30:11;5.10;;;4.60;;
14984;SDS011;7588;62.368;25.902;2023-04-24T11:32:37;3.60;;;3.30;;
14984;SDS011;7588;62.368;25.902;2023-04-24T11:37:42;3.87;;;3.47;;
14984;SDS011;7588;62.368;25.902;2023-04-24T11:40:11;10.13;;;4.73;;
14984;SDS011;7588;62.368;25.902;2023-04-24T11:42:42;4.20;;;3.80;;
14984;SDS011;7588;62.368;25.902;2023-04-24T11:45:13;3.43;;;3.13;;
14984;SDS011;7588;62.368;25.902;2023-04-24T11:47:41;3.70;;;3.40;;
14984;SDS011;7588;62.368;25.902;2023-04-24T11:50:09;3.60;;;3.30;;
14984;SDS011;7588;62.368;25.902;2023-04-24T11:52:37;3.90;;;3.60;;
14984;SDS011;7588;62.368;25.902;2023-04-24T11:55:06;3.53;;;3.00;;
14984;SDS011;7588;62.368;25.902;2023-04-24T11:57:53;3.00;;;2.80;;
14984;SDS011;7588;62.368;25.902;2023-04-24T12:00:25;3.47;;;3.00;;
14984;SDS011;7588;62.368;25.902;2023-04-24T12:03:03;4.50;;;2.50;;
14984;SDS011;7588;62.368;25.902;2023-04-24T12:05:33;6.13;;;3.10;;
14984;SDS011;7588;62.368;25.902;2023-04-24T12:07:59;3.20;;;2.90;;
14984;SDS011;7588;62.368;25.902;2023-04-24T12:10:29;3.83;;;2.43;;
14984;SDS011;7588;62.368;25.902;2023-04-24T12:12:56;7.10;;;2.80;;
14984;SDS011;7588;62.368;25.902;2023-04-24T12:15:23;2.97;;;2.30;;
14984;SDS011;7588;62.368;25.902;2023-04-24T12:17:53;2.30;;;2.20;;
14984;SDS011;7588;62.368;25.902;2023-04-24T12:20:27;2.23;;;2.00;;
14984;SDS011;7588;62.368;25.902;2023-04-24T12:22:55;2.20;;;2.10;;
14984;SDS011;7588;62.368;25.902;2023-04-24T12:25:22;4.30;;;2.00;;
14984;SDS011;7588;62.368;25.902;2023-04-24T12:27:53;5.97;;;2.63;;
14984;SDS011;7588;62.368;25.902;2023-04-24T12:30:26;1.70;;;1.60;;
14984;SDS011;7588;62.368;25.902;2023-04-24T12:32:57;2.07;;;1.90;;
14984;SDS011;7588;62.368;25.902;2023-04-24T12:35:24;2.00;;;1.57;;
14984;SDS011;7588;62.368;25.902;2023-04-24T12:37:51;9.50;;;2.00;;
14984;SDS011;7588;62.368;25.902;2023-04-24T12:40:18;2.07;;;1.97;;
14984;SDS011;7588;62.368;25.902;2023-04-24T12:42:46;4.43;;;1.80;;
14984;SDS011;7588;62.368;25.902;2023-04-24T12:45:14;3.27;;;1.80;;
14984;SDS011;7588;62.368;25.902;2023-04-24T12:47:41;14.33;;;2.53;;
14984;SDS011;7588;62.368;25.902;2023-04-24T12:50:08;3.50;;;1.40;;
14984;SDS011;7588;62.368;25.902;2023-04-24T12:52:35;1.63;;;1.53;;
14984;SDS011;7588;62.368;25.902;2023-04-24T12:55:02;2.13;;;2.03;;
14984;SDS011;7588;62.368;25.902;2023-04-24T12:57:30;2.13;;;1.80;;
14984;SDS011;7588;62.368;25.902;2023-04-24T12:59:56;2.10;;;1.90;;
14984;SDS011;7588;62.368;25.902;2023-04-24T13:02:23;2.00;;;1.90;;
14984;SDS011;7588;62.368;25.902;2023-04-24T13:04:49;2.43;;;1.97;;
14984;SDS011;7588;62.368;25.902;2023-04-24T13:07:16;1.73;;;1.63;;
14984;SDS011;7588;62.368;25.902;2023-04-24T13:09:42;1.73;;;1.63;;
14984;SDS011;7588;62.368;25.902;2023-04-24T13:12:09;2.30;;;2.10;;
14984;SDS011;7588;62.368;25.902;2023-04-24T13:14:35;2.50;;;2.30;;
14984;SDS011;7588;62.368;25.902;2023-04-24T13:17:01;2.03;;;1.93;;
14984;SDS011;7588;62.368;25.902;2023-04-24T13:19:28;2.63;;;2.10;;
14984;SDS011;7588;62.368;25.902;2023-04-24T13:21:54;2.57;;;1.97;;
14984;SDS011;7588;62.368;25.902;2023-04-24T13:24:22;2.00;;;1.90;;
14984;SDS011;7588;62.368;25.902;2023-04-24T13:26:54;1.90;;;1.80;;
14984;SDS011;7588;62.368;25.902;2023-04-24T13:29:21;2.10;;;2.00;;
14984;SDS011;7588;62.368;25.902;2023-04-24T13:31:49;2.90;;;2.20;;
14984;SDS011;7588;62.368;25.902;2023-04-24T13:34:16;3.00;;;1.77;;
14984;SDS011;7588;62.368;25.902;2023-04-24T13:36:42;2.70;;;2.10;;
14984;SDS011;7588;62.368;25.902;2023-04-24T13:39:08;2.03;;;1.80;;
14984;SDS011;7588;62.368;25.902;2023-04-24T13:41:35;3.23;;;2.37;;
14984;SDS011;7588;62.368;25.902;2023-04-24T13:44:01;2.50;;;2.10;;
14984;SDS011;7588;62.368;25.902;2023-04-24T13:46:28;12.10;;;2.60;;
14984;SDS011;7588;62.368;25.902;2023-04-24T13:48:54;2.80;;;2.60;;
14984;SDS011;7588;62.368;25.902;2023-04-24T13:51:20;2.50;;;2.30;;
14984;SDS011;7588;62.368;25.902;2023-04-24T13:53:45;8.23;;;2.70;;
14984;SDS011;7588;62.368;25.902;2023-04-24T13:56:11;2.43;;;2.23;;
14984;SDS011;7588;62.368;25.902;2023-04-24T13:58:38;12.90;;;2.73;;
14984;SDS011;7588;62.368;25.902;2023-04-24T14:01:04;3.93;;;2.10;;
14984;SDS011;7588;62.368;25.902;2023-04-24T14:03:30;2.20;;;2.00;;
14984;SDS011;7588;62.368;25.902;2023-04-24T14:05:56;2.30;;;2.10;;
14984;SDS011;7588;62.368;25.902;2023-04-24T14:08:22;9.07;;;3.20;;
14984;SDS011;7588;62.368;25.902;2023-04-24T14:10:49;2.23;;;2.03;;
14984;SDS011;7588;62.368;25.902;2023-04-24T14:13:16;7.17;;;2.17;;
14984;SDS011;7588;62.368;25.902;2023-04-24T14:15:43;2.43;;;2.23;;
14984;SDS011;7588;62.368;25.902;2023-04-24T14:18:08;2.10;;;1.90;;
14984;SDS011;7588;62.368;25.902;2023-04-24T14:20:34;2.43;;;2.23;;
14984;SDS011;7588;62.368;25.902;2023-04-24T14:23:00;2.30;;;2.10;;
14984;SDS011;7588;62.368;25.902;2023-04-24T14:25:26;2.27;;;2.07;;
14984;SDS011;7588;62.368;25.902;2023-04-24T14:27:52;2.20;;;2.00;;
14984;SDS011;7588;62.368;25.902;2023-04-24T14:30:18;1.97;;;1.63;;
14984;SDS011;7588;62.368;25.902;2023-04-24T14:32:44;2.80;;;1.80;;
14984;SDS011;7588;62.368;25.902;2023-04-24T14:35:10;2.47;;;2.27;;
14984;SDS011;7588;62.368;25.902;2023-04-24T14:37:35;3.50;;;1.77;;
14984;SDS011;7588;62.368;25.902;2023-04-24T14:40:02;2.43;;;1.80;;
14984;SDS011;7588;62.368;25.902;2023-04-24T14:42:29;3.03;;;2.10;;
14984;SDS011;7588;62.368;25.902;2023-04-24T14:44:54;2.10;;;2.00;;
14984;SDS011;7588;62.368;25.902;2023-04-24T14:47:20;5.80;;;2.17;;
14984;SDS011;7588;62.368;25.902;2023-04-24T14:49:47;2.00;;;1.70;;
14984;SDS011;7588;62.368;25.902;2023-04-24T14:52:13;1.73;;;1.63;;
14984;SDS011;7588;62.368;25.902;2023-04-24T14:54:39;1.70;;;1.60;;
14984;SDS011;7588;62.368;25.902;2023-04-24T14:57:05;1.70;;;1.60;;
14984;SDS011;7588;62.368;25.902;2023-04-24T14:59:30;3.83;;;2.07;;
14984;SDS011;7588;62.368;25.902;2023-04-24T15:01:56;2.30;;;1.93;;